Time;durP1;ratioP1;P1;durP2;ratioP2;P2;SDS_P1;SDS_P2;PMS_P1;PMS_P2;Temp;Humidity;BMP_temperature;BMP_pressure;BME280_temperature;BME280_humidity;BME280_pressure;Samples;Min_cycle;Max_cycle;Signal;HPM_P1;HPM_P2
2021/12/05 00:20:53;;;;;;;7.82;1.60;;;;;;;;;;5093514;28;20480;-77
2021/12/05 00:23:28;;;;;;;8.82;1.23;;;;;;;;;;5091996;28;20098;-75
2021/12/05 00:25:55;;;;;;;9.90;1.38;;;;;;;;;;5092620;28;20036;-75
2021/12/05 00:37:09;;;;;;;5.30;1.02;;;;;;;;;;5091680;28;20048;-76
2021/12/05 00:47:46;;;;;;;10.15;1.50;;;;;;;;;;5075051;28;20127;-73
2021/12/05 00:53:35;;;;;;;11.55;1.40;;;;;;;;;;5091821;28;20048;-76
2021/12/05 01:12:12;;;;;;;9.02;1.45;;;;;;;;;;5092942;28;20117;-74
2021/12/05 01:17:19;;;;;;;11.45;1.50;;;;;;;;;;5091050;28;20071;-74
2021/12/05 01:19:46;;;;;;;9.60;1.40;;;;;;;;;;5092467;28;20068;-74
2021/12/05 01:22:13;;;;;;;9.00;1.63;;;;;;;;;;5074331;28;20089;-75
2021/12/05 01:30:31;;;;;;;6.38;1.15;;;;;;;;;;5085034;28;20044;-74
2021/12/05 01:35:56;;;;;;;12.48;1.52;;;;;;;;;;5092530;28;20028;-74
2021/12/05 01:41:15;;;;;;;5.88;1.20;;;;;;;;;;5090904;28;20132;-74
2021/12/05 01:55:31;;;;;;;14.27;1.77;;;;;;;;;;5033175;28;20037;-74
2021/12/05 01:58:12;;;;;;;17.73;2.28;;;;;;;;;;5073280;28;20105;-73
2021/12/05 02:33:04;;;;;;;7.70;1.20;;;;;;;;;;5090403;28;20499;-72
2021/12/05 02:36:46;;;;;;;9.98;1.65;;;;;;;;;;5090397;28;20032;-75
2021/12/05 02:41:12;;;;;;;8.27;1.50;;;;;;;;;;5090353;28;20047;-74
2021/12/05 02:43:45;;;;;;;8.00;1.67;;;;;;;;;;5091395;28;20111;-74
2021/12/05 02:46:13;;;;;;;8.13;1.70;;;;;;;;;;5090415;28;20059;-75
2021/12/05 02:48:39;;;;;;;5.53;1.27;;;;;;;;;;5090444;28;20032;-75
2021/12/05 02:51:15;;;;;;;11.15;1.77;;;;;;;;;;5074370;28;20502;-76
2021/12/05 02:54:07;;;;;;;11.05;1.58;;;;;;;;;;5093594;28;20545;-74
2021/12/05 02:56:32;;;;;;;12.18;1.73;;;;;;;;;;5093588;28;20499;-74
2021/12/05 02:59:04;;;;;;;10.00;1.13;;;;;;;;;;5093635;28;20084;-74
2021/12/05 03:03:59;;;;;;;15.43;2.30;;;;;;;;;;5093509;28;20529;-73
2021/12/05 03:06:28;;;;;;;16.15;1.95;;;;;;;;;;5094587;28;20266;-75
2021/12/05 03:08:55;;;;;;;15.13;1.90;;;;;;;;;;5094715;28;20077;-75
2021/12/05 03:11:21;;;;;;;13.40;1.85;;;;;;;;;;5093428;28;20039;-72
2021/12/05 03:13:47;;;;;;;13.00;2.00;;;;;;;;;;5094529;28;20028;-74
2021/12/05 03:16:15;;;;;;;10.32;1.35;;;;;;;;;;5093227;28;20383;-74
2021/12/05 03:18:40;;;;;;;7.43;1.33;;;;;;;;;;5094424;28;20040;-74
2021/12/05 03:21:08;;;;;;;16.23;2.15;;;;;;;;;;5092910;28;20035;-74
2021/12/05 03:23:39;;;;;;;6.75;1.02;;;;;;;;;;5076655;28;20062;-74
2021/12/05 03:26:06;;;;;;;12.90;1.67;;;;;;;;;;5076199;28;20078;-74
2021/12/05 03:28:32;;;;;;;13.10;1.70;;;;;;;;;;5093063;28;20024;-75
2021/12/05 03:30:59;;;;;;;10.70;1.35;;;;;;;;;;5092006;28;20521;-74
2021/12/05 03:33:25;;;;;;;15.68;2.80;;;;;;;;;;5092855;28;20028;-73
2021/12/05 03:35:51;;;;;;;12.60;2.22;;;;;;;;;;5092776;28;20051;-73
2021/12/05 03:38:16;;;;;;;8.40;1.80;;;;;;;;;;5093027;28;20043;-72
2021/12/05 03:40:44;;;;;;;8.77;1.40;;;;;;;;;;5092823;28;20036;-75
2021/12/05 03:43:12;;;;;;;12.32;1.92;;;;;;;;;;5092777;28;20040;-76
2021/12/05 03:45:41;;;;;;;8.77;1.45;;;;;;;;;;5092783;28;20123;-76
2021/12/05 03:48:08;;;;;;;11.15;1.60;;;;;;;;;;5092745;28;20036;-75
2021/12/05 03:50:35;;;;;;;15.18;2.47;;;;;;;;;;5094255;28;20036;-76
2021/12/05 03:53:01;;;;;;;14.02;2.08;;;;;;;;;;5075962;28;20059;-76
2021/12/05 03:55:27;;;;;;;10.98;2.00;;;;;;;;;;5092741;28;20496;-75
2021/12/05 03:57:53;;;;;;;13.20;2.33;;;;;;;;;;5075628;28;20036;-75
2021/12/05 04:00:27;;;;;;;14.30;1.50;;;;;;;;;;5092629;28;20093;-73
2021/12/05 04:02:55;;;;;;;13.80;2.95;;;;;;;;;;5064657;28;20491;-72
2021/12/05 04:05:26;;;;;;;15.55;2.00;;;;;;;;;;5052223;28;20040;-74
2021/12/05 04:07:52;;;;;;;12.85;1.83;;;;;;;;;;5068133;28;20127;-74
2021/12/05 04:10:20;;;;;;;13.52;1.73;;;;;;;;;;5051544;28;20066;-74
2021/12/05 04:12:46;;;;;;;14.82;2.13;;;;;;;;;;5067853;28;20105;-71
2021/12/05 04:15:13;;;;;;;9.45;1.65;;;;;;;;;;5068665;28;20039;-75
2021/12/05 04:17:41;;;;;;;11.80;1.90;;;;;;;;;;5051244;28;20042;-75
2021/12/05 04:20:07;;;;;;;13.07;2.22;;;;;;;;;;5051388;28;20033;-72
2021/12/05 04:22:34;;;;;;;8.77;1.30;;;;;;;;;;5067777;28;20043;-74
2021/12/05 04:25:03;;;;;;;17.50;2.78;;;;;;;;;;5067990;28;20032;-75
2021/12/05 04:27:29;;;;;;;19.52;3.85;;;;;;;;;;5067976;28;20123;-74
2021/12/05 04:29:54;;;;;;;9.35;1.75;;;;;;;;;;5069198;28;20112;-75
2021/12/05 04:32:20;;;;;;;18.63;2.88;;;;;;;;;;5067890;28;20109;-75
2021/12/05 04:34:46;;;;;;;11.73;2.10;;;;;;;;;;5068941;28;20214;-76
2021/12/05 04:37:12;;;;;;;16.08;2.08;;;;;;;;;;5069336;28;20079;-75
2021/12/05 04:39:38;;;;;;;18.13;3.55;;;;;;;;;;5067622;28;20028;-74
2021/12/05 04:42:04;;;;;;;16.10;2.42;;;;;;;;;;5067508;28;20048;-73
2021/12/05 04:44:30;;;;;;;13.75;2.20;;;;;;;;;;5069125;28;20071;-73
2021/12/05 04:47:00;;;;;;;14.70;2.20;;;;;;;;;;5067289;28;20044;-72
2021/12/05 04:49:27;;;;;;;13.52;2.30;;;;;;;;;;5067689;28;20041;-73
2021/12/05 04:51:53;;;;;;;14.20;2.00;;;;;;;;;;5067584;28;20399;-74
2021/12/05 04:54:19;;;;;;;17.90;1.98;;;;;;;;;;5051033;28;20024;-78
2021/12/05 04:56:48;;;;;;;20.27;2.88;;;;;;;;;;5067408;28;20036;-74
2021/12/05 04:59:17;;;;;;;17.52;2.53;;;;;;;;;;5067173;28;20043;-75
2021/12/05 05:01:45;;;;;;;14.30;2.78;;;;;;;;;;5067382;28;20037;-74
2021/12/05 05:04:23;;;;;;;21.60;3.30;;;;;;;;;;5068662;28;20391;-72
2021/12/05 05:06:49;;;;;;;21.35;2.88;;;;;;;;;;5066937;28;20040;-76
2021/12/05 05:09:15;;;;;;;15.13;2.92;;;;;;;;;;5067535;28;20055;-75
2021/12/05 05:11:41;;;;;;;21.50;2.58;;;;;;;;;;5067283;28;20468;-76
2021/12/05 05:14:07;;;;;;;16.83;2.58;;;;;;;;;;5067863;28;20108;-75
2021/12/05 05:16:33;;;;;;;21.92;2.40;;;;;;;;;;5067418;28;20503;-74
2021/12/05 05:19:00;;;;;;;20.55;3.10;;;;;;;;;;5068357;28;20040;-73
2021/12/05 05:24:25;;;;;;;17.20;2.55;;;;;;;;;;5067208;28;20044;-75
2021/12/05 05:45:44;;;;;;;18.42;3.38;;;;;;;;;;5068119;28;20416;-71
2021/12/05 05:48:40;;;;;;;21.08;3.22;;;;;;;;;;5067949;28;20693;-72
2021/12/05 05:50:53;;;;;;;21.92;3.00;;;;;;;;;;5065689;28;20094;-75
2021/12/05 05:53:19;;;;;;;18.27;2.75;;;;;;;;;;5068345;28;20033;-75
2021/12/05 05:55:44;;;;;;;24.67;3.33;;;;;;;;;;5068215;28;20115;-73
2021/12/05 05:58:14;;;;;;;20.60;3.88;;;;;;;;;;5068181;28;20468;-73
2021/12/05 06:00:52;;;;;;;26.70;3.28;;;;;;;;;;5066316;28;20044;-74
2021/12/05 06:03:21;;;;;;;14.77;2.97;;;;;;;;;;5068248;28;20039;-73
2021/12/05 06:05:46;;;;;;;;;;;;;;;;;;5050486;28;20595;-75
2021/12/05 06:08:12;;;;;;;24.73;3.67;;;;;;;;;;5067802;28;19995;-74
2021/12/05 06:10:38;;;;;;;25.52;3.45;;;;;;;;;;5066182;28;20488;-77
2021/12/05 06:13:03;;;;;;;18.98;2.85;;;;;;;;;;5067936;28;20056;-73
2021/12/05 06:15:29;;;;;;;27.45;5.07;;;;;;;;;;5067832;28;20093;-77
2021/12/05 06:17:55;;;;;;;26.17;3.17;;;;;;;;;;5049774;28;20383;-78
2021/12/05 06:20:23;;;;;;;26.80;4.22;;;;;;;;;;5067972;28;20040;-75
2021/12/05 06:22:49;;;;;;;25.93;3.53;;;;;;;;;;5066030;28;20047;-80
2021/12/05 06:25:20;;;;;;;27.85;3.97;;;;;;;;;;5069238;28;20033;-75
2021/12/05 06:27:47;;;;;;;21.88;2.97;;;;;;;;;;5071667;28;20040;-76
2021/12/05 06:30:33;;;;;;;25.20;4.35;;;;;;;;;;5069913;28;20032;-74
2021/12/05 06:46:17;;;;;;;20.92;3.45;;;;;;;;;;5070852;28;20480;-71
2021/12/05 06:48:43;;;;;;;19.45;3.42;;;;;;;;;;5070647;28;20468;-74
2021/12/05 06:51:12;;;;;;;21.02;2.95;;;;;;;;;;5052872;28;20039;-74
2021/12/05 06:53:38;;;;;;;18.88;3.22;;;;;;;;;;5053186;28;20075;-75
2021/12/05 06:56:04;;;;;;;26.95;3.25;;;;;;;;;;5071103;28;20047;-73
2021/12/05 06:58:31;;;;;;;13.98;2.20;;;;;;;;;;5052552;28;20438;-73
2021/12/05 07:00:57;;;;;;;20.45;2.72;;;;;;;;;;5052434;28;20077;-75
2021/12/05 07:03:22;;;;;;;19.48;2.92;;;;;;;;;;5070747;28;20041;-75
2021/12/05 07:08:14;;;;;;;12.00;2.78;;;;;;;;;;5069249;28;20028;-74
2021/12/05 07:19:29;;;;;;;19.90;3.15;;;;;;;;;;5070237;28;20043;-74
2021/12/05 07:22:01;;;;;;;17.50;2.75;;;;;;;;;;5065880;28;20565;-75
2021/12/05 07:24:38;;;;;;;29.48;4.65;;;;;;;;;;5070500;28;20036;-76
2021/12/05 07:40:21;;;;;;;19.38;3.38;;;;;;;;;;5069103;28;20036;-74
2021/12/05 07:40:51;;;;;;;20.98;3.35;;;;;;;;;;5069837;28;20071;-74
2021/12/05 07:43:17;;;;;;;20.42;3.92;;;;;;;;;;5085454;28;20083;-74
2021/12/05 07:45:50;;;;;;;29.60;3.15;;;;;;;;;;5069869;28;20047;-75
2021/12/05 07:48:20;;;;;;;25.92;3.40;;;;;;;;;;5085994;28;20194;-74
2021/12/05 07:54:08;;;;;;;22.95;3.40;;;;;;;;;;5061431;28;20044;-74
2021/12/05 08:15:18;;;;;;;20.10;2.50;;;;;;;;;;5089546;28;20048;-75
2021/12/05 08:17:51;;;;;;;17.95;2.83;;;;;;;;;;5089985;28;20050;-76
2021/12/05 08:20:17;;;;;;;11.63;3.58;;;;;;;;;;5088464;28;20051;-74
2021/12/05 08:22:42;;;;;;;19.45;2.35;;;;;;;;;;5087685;28;20169;-76
2021/12/05 08:25:11;;;;;;;13.75;2.50;;;;;;;;;;5089689;28;20115;-74
2021/12/05 08:27:39;;;;;;;14.27;2.05;;;;;;;;;;5089374;28;20036;-76
2021/12/05 08:30:10;;;;;;;10.57;1.58;;;;;;;;;;5089666;28;20023;-79
2021/12/05 08:43:46;;;;;;;12.95;1.90;;;;;;;;;;5087898;28;20403;-71
2021/12/05 09:25:13;;;;;;;18.83;2.33;;;;;;;;;;5070323;28;20059;-72
2021/12/05 10:08:22;;;;;;;15.38;2.65;;;;;;;;;;5091954;28;20040;-70
2021/12/05 10:13:57;;;;;;;9.18;1.65;;;;;;;;;;5061062;28;20495;-72
2021/12/05 10:36:01;;;;;;;10.07;2.55;;;;;;;;;;5066870;28;20082;-69
2021/12/05 10:38:31;;;;;;;11.68;1.73;;;;;;;;;;5086478;28;20124;-70
2021/12/05 10:41:05;;;;;;;10.00;1.60;;;;;;;;;;5054212;28;20043;-71
2021/12/05 10:43:31;;;;;;;14.32;2.40;;;;;;;;;;5071764;28;20044;-70
2021/12/05 10:46:03;;;;;;;8.05;1.45;;;;;;;;;;5055006;28;20050;-70
2021/12/05 10:48:29;;;;;;;13.45;1.67;;;;;;;;;;5055010;28;20028;-71
2021/12/05 10:50:56;;;;;;;9.27;1.70;;;;;;;;;;5071066;28;20040;-70
2021/12/05 10:53:32;;;;;;;9.65;2.08;;;;;;;;;;5069771;28;20032;-69
2021/12/05 10:56:03;;;;;;;11.10;2.00;;;;;;;;;;5069251;28;20044;-70
2021/12/05 10:58:33;;;;;;;6.82;1.55;;;;;;;;;;5052610;28;20028;-69
2021/12/05 11:01:03;;;;;;;9.95;1.40;;;;;;;;;;5056929;28;20040;-70
2021/12/05 11:03:29;;;;;;;7.90;1.50;;;;;;;;;;5087569;28;20072;-69
2021/12/05 11:05:55;;;;;;;8.27;1.25;;;;;;;;;;5088807;28;20063;-70
2021/12/05 11:08:35;;;;;;;6.93;1.60;;;;;;;;;;5071797;28;20039;-70
2021/12/05 11:11:08;;;;;;;9.82;1.80;;;;;;;;;;5071826;28;20424;-69
2021/12/05 11:13:36;;;;;;;13.32;2.63;;;;;;;;;;5089091;28;20073;-70
2021/12/05 11:16:02;;;;;;;16.35;1.88;;;;;;;;;;5089186;28;20502;-71
2021/12/05 11:18:40;;;;;;;9.60;1.65;;;;;;;;;;5090554;28;20024;-71
2021/12/05 11:21:24;;;;;;;12.82;1.85;;;;;;;;;;5090765;28;20059;-69
2021/12/05 11:24:08;;;;;;;11.65;2.63;;;;;;;;;;5090398;28;20416;-70
2021/12/05 11:26:34;;;;;;;12.82;1.67;;;;;;;;;;5090743;28;20043;-70
2021/12/05 11:29:00;;;;;;;12.32;1.73;;;;;;;;;;5090228;28;20468;-69
2021/12/05 11:31:27;;;;;;;11.18;1.70;;;;;;;;;;5072168;28;20028;-70
2021/12/05 11:33:56;;;;;;;11.38;1.83;;;;;;;;;;5072301;28;20834;-71
2021/12/05 11:36:26;;;;;;;10.50;1.42;;;;;;;;;;5089358;28;20032;-70
2021/12/05 11:38:52;;;;;;;5.97;1.00;;;;;;;;;;5088772;28;20032;-71
2021/12/05 11:41:22;;;;;;;9.48;1.48;;;;;;;;;;5089880;28;20391;-69
2021/12/05 11:43:51;;;;;;;8.48;1.15;;;;;;;;;;5089924;28;20032;-70
2021/12/05 11:46:20;;;;;;;15.40;1.67;;;;;;;;;;5072105;28;20058;-70
2021/12/05 11:48:57;;;;;;;7.10;1.63;;;;;;;;;;5088475;28;20051;-69
2021/12/05 11:51:33;;;;;;;9.75;1.60;;;;;;;;;;5090268;28;20368;-70
2021/12/05 11:54:11;;;;;;;12.57;1.70;;;;;;;;;;5072213;28;20035;-71
2021/12/05 11:56:39;;;;;;;13.23;1.73;;;;;;;;;;5089681;28;20118;-70
2021/12/05 11:59:06;;;;;;;12.85;1.60;;;;;;;;;;5090052;28;20034;-69
2021/12/05 12:01:34;;;;;;;11.60;1.88;;;;;;;;;;5072063;28;20036;-71
2021/12/05 12:03:59;;;;;;;10.05;1.38;;;;;;;;;;5071482;28;20047;-70
2021/12/05 12:06:25;;;;;;;13.82;1.83;;;;;;;;;;5089780;28;20032;-71
2021/12/05 12:08:52;;;;;;;11.93;1.67;;;;;;;;;;5089683;28;20051;-71
2021/12/05 12:11:18;;;;;;;13.00;1.92;;;;;;;;;;5071726;28;20039;-71
2021/12/05 12:13:46;;;;;;;12.38;1.90;;;;;;;;;;5087039;28;20392;-75
2021/12/05 12:16:13;;;;;;;10.77;1.67;;;;;;;;;;5070312;28;20065;-74
2021/12/05 12:18:48;;;;;;;12.23;2.65;;;;;;;;;;5087087;28;20024;-76
2021/12/05 12:21:21;;;;;;;13.48;2.13;;;;;;;;;;5089422;28;20032;-74
2021/12/05 12:23:48;;;;;;;14.95;1.75;;;;;;;;;;5071362;28;20085;-76
2021/12/05 12:26:14;;;;;;;20.15;2.53;;;;;;;;;;5089661;28;20475;-65
2021/12/05 12:28:40;;;;;;;6.35;2.05;;;;;;;;;;5089662;28;20036;-65
2021/12/05 12:31:12;;;;;;;11.98;1.58;;;;;;;;;;5089668;28;20080;-68
2021/12/05 12:33:49;;;;;;;11.65;1.77;;;;;;;;;;5088293;28;20035;-68
2021/12/05 12:36:14;;;;;;;15.00;3.38;;;;;;;;;;5087792;28;20028;-66
2021/12/05 12:38:42;;;;;;;12.45;2.00;;;;;;;;;;5087380;28;20345;-66
2021/12/05 12:41:12;;;;;;;11.60;2.00;;;;;;;;;;5087233;28;20071;-66
2021/12/05 12:43:44;;;;;;;13.35;2.33;;;;;;;;;;5087447;28;20044;-67
2021/12/05 12:46:18;;;;;;;7.22;1.65;;;;;;;;;;5087472;28;20609;-70
2021/12/05 12:48:44;;;;;;;16.13;1.80;;;;;;;;;;5088023;28;20035;-70
2021/12/05 12:51:24;;;;;;;14.70;2.05;;;;;;;;;;5089390;28;20028;-70
2021/12/05 12:53:53;;;;;;;11.23;1.80;;;;;;;;;;5089148;28;20044;-67
2021/12/05 12:56:22;;;;;;;15.35;2.10;;;;;;;;;;5089821;28;20040;-70
2021/12/05 12:58:49;;;;;;;14.35;2.30;;;;;;;;;;5089240;28;20035;-70
2021/12/05 13:01:19;;;;;;;7.88;1.42;;;;;;;;;;5089033;28;20360;-69
2021/12/05 13:12:44;;;;;;;13.70;3.17;;;;;;;;;;5088815;28;20038;-69
2021/12/05 13:15:09;;;;;;;12.13;1.77;;;;;;;;;;5089174;28;20085;-70
2021/12/05 13:17:42;;;;;;;19.05;1.98;;;;;;;;;;5089140;28;20036;-71
2021/12/05 13:20:09;;;;;;;15.77;2.08;;;;;;;;;;5089027;28;20391;-68
2021/12/05 13:22:55;;;;;;;12.38;1.92;;;;;;;;;;5088355;28;20124;-68
2021/12/05 13:25:21;;;;;;;12.38;2.33;;;;;;;;;;5077722;28;20193;-71
2021/12/05 13:27:47;;;;;;;13.55;2.65;;;;;;;;;;5088846;28;20519;-69
2021/12/05 13:30:26;;;;;;;10.63;1.88;;;;;;;;;;5088678;28;20090;-70
2021/12/05 13:33:11;;;;;;;13.20;2.22;;;;;;;;;;5088418;28;20085;-68
2021/12/05 13:35:38;;;;;;;13.85;2.78;;;;;;;;;;5087701;28;20039;-70
2021/12/05 13:38:04;;;;;;;11.65;1.63;;;;;;;;;;5088701;28;20028;-71
2021/12/05 13:40:32;;;;;;;9.25;1.60;;;;;;;;;;5088007;28;20533;-68
2021/12/05 13:43:06;;;;;;;14.25;2.97;;;;;;;;;;5087975;28;20065;-72
2021/12/05 13:45:43;;;;;;;11.82;1.70;;;;;;;;;;5088457;28;20044;-70
2021/12/05 13:48:20;;;;;;;5.68;1.38;;;;;;;;;;5088571;28;20384;-68
2021/12/05 13:50:47;;;;;;;17.35;2.80;;;;;;;;;;5086798;28;20089;-69
2021/12/05 13:53:13;;;;;;;14.73;1.73;;;;;;;;;;5081990;28;20393;-71
2021/12/05 13:56:01;;;;;;;10.57;1.77;;;;;;;;;;5079736;28;20044;-70
2021/12/05 13:58:40;;;;;;;13.70;2.22;;;;;;;;;;5088355;28;20116;-67
2021/12/05 14:01:06;;;;;;;10.73;2.28;;;;;;;;;;5088281;28;20043;-71
2021/12/05 14:03:40;;;;;;;13.57;1.77;;;;;;;;;;5088622;28;20434;-69
2021/12/05 14:06:24;;;;;;;12.13;1.88;;;;;;;;;;5088250;28;20040;-65
2021/12/05 14:08:52;;;;;;;13.93;1.65;;;;;;;;;;5086718;28;20036;-72
2021/12/05 14:11:18;;;;;;;12.05;1.92;;;;;;;;;;5087991;28;20043;-70
2021/12/05 14:13:44;;;;;;;8.50;1.75;;;;;;;;;;5087964;28;20387;-69
2021/12/05 14:16:10;;;;;;;14.77;2.78;;;;;;;;;;5087788;28;20035;-70
2021/12/05 14:18:35;;;;;;;15.73;1.88;;;;;;;;;;5087750;28;20036;-68
2021/12/05 14:21:11;;;;;;;15.55;2.10;;;;;;;;;;5087921;28;20070;-68
2021/12/05 14:23:36;;;;;;;13.88;1.60;;;;;;;;;;5088015;28;20032;-69
2021/12/05 14:26:15;;;;;;;14.05;2.03;;;;;;;;;;5087976;28;20905;-69
2021/12/05 14:28:40;;;;;;;12.27;1.80;;;;;;;;;;5087573;28;20028;-69
2021/12/05 14:31:06;;;;;;;18.25;2.28;;;;;;;;;;5087890;28;20411;-65
2021/12/05 14:33:46;;;;;;;8.70;1.40;;;;;;;;;;5088048;28;20021;-71
2021/12/05 14:36:11;;;;;;;;;;;;;;;;;;5088066;28;20119;-69
2021/12/05 14:38:37;;;;;;;16.17;2.17;;;;;;;;;;5086077;28;20010;-70
2021/12/05 14:41:03;;;;;;;9.85;2.05;;;;;;;;;;5087669;28;20020;-69
2021/12/05 14:43:30;;;;;;;19.45;2.60;;;;;;;;;;5087663;28;20386;-68
2021/12/05 14:46:00;;;;;;;11.95;2.13;;;;;;;;;;5088590;28;20063;-64
2021/12/05 14:48:29;;;;;;;16.25;2.08;;;;;;;;;;5091526;28;20036;-70
2021/12/05 14:50:57;;;;;;;17.27;2.33;;;;;;;;;;5091067;28;20441;-68
2021/12/05 14:53:24;;;;;;;12.82;1.88;;;;;;;;;;5091307;28;20460;-68
2021/12/05 14:55:56;;;;;;;14.93;1.80;;;;;;;;;;5091020;28;20036;-69
2021/12/05 14:58:22;;;;;;;11.70;2.17;;;;;;;;;;5091150;28;20075;-69
2021/12/05 15:00:50;;;;;;;11.73;2.03;;;;;;;;;;5091212;28;20056;-64
2021/12/05 15:03:18;;;;;;;15.45;3.05;;;;;;;;;;5090791;28;20048;-71
2021/12/05 15:05:46;;;;;;;10.40;2.13;;;;;;;;;;5090631;28;20040;-64
2021/12/05 15:08:13;;;;;;;17.40;2.38;;;;;;;;;;5090819;28;20467;-72
2021/12/05 15:10:41;;;;;;;10.60;1.80;;;;;;;;;;5071314;28;20024;-70
2021/12/05 15:13:08;;;;;;;13.98;2.00;;;;;;;;;;5069439;28;20051;-69
2021/12/05 15:15:34;;;;;;;12.80;2.15;;;;;;;;;;5070640;28;20044;-69
2021/12/05 15:18:00;;;;;;;14.02;2.10;;;;;;;;;;5069424;28;20044;-69
2021/12/05 15:20:27;;;;;;;12.93;2.13;;;;;;;;;;5070549;28;20048;-72
2021/12/05 15:23:04;;;;;;;12.93;2.15;;;;;;;;;;5052249;28;20040;-70
2021/12/05 15:25:30;;;;;;;12.85;1.67;;;;;;;;;;5070486;28;20143;-69
2021/12/05 15:27:58;;;;;;;16.58;2.22;;;;;;;;;;5070398;28;20033;-69
2021/12/05 15:30:28;;;;;;;10.02;2.45;;;;;;;;;;5070685;28;20032;-69
2021/12/05 15:32:55;;;;;;;12.57;1.95;;;;;;;;;;5069739;28;20437;-77
2021/12/05 15:35:21;;;;;;;10.45;1.33;;;;;;;;;;5088475;28;20035;-78
2021/12/05 15:37:48;;;;;;;10.05;2.53;;;;;;;;;;5068151;28;20032;-77
2021/12/05 15:40:14;;;;;;;11.30;1.90;;;;;;;;;;5088069;28;20055;-75
2021/12/05 15:42:39;;;;;;;8.35;1.48;;;;;;;;;;5088509;28;20471;-76
2021/12/05 15:45:07;;;;;;;13.55;1.65;;;;;;;;;;5087987;28;20089;-75
2021/12/05 15:47:33;;;;;;;11.30;2.08;;;;;;;;;;5086983;28;20032;-76
2021/12/05 15:49:58;;;;;;;13.88;2.20;;;;;;;;;;5087835;28;20158;-77
2021/12/05 15:52:26;;;;;;;17.45;2.00;;;;;;;;;;5087819;28;20082;-76
2021/12/05 15:54:52;;;;;;;15.38;2.95;;;;;;;;;;5089556;28;20032;-77
2021/12/05 15:57:27;;;;;;;11.60;1.63;;;;;;;;;;5088496;28;20558;-76
2021/12/05 15:59:53;;;;;;;12.25;1.92;;;;;;;;;;5086303;28;20032;-76
2021/12/05 16:02:19;;;;;;;15.02;1.92;;;;;;;;;;5086359;28;20028;-75
2021/12/05 16:04:46;;;;;;;12.10;1.70;;;;;;;;;;5086685;28;20059;-76
2021/12/05 16:07:11;;;;;;;13.80;2.55;;;;;;;;;;5085820;28;20028;-76
2021/12/05 16:09:39;;;;;;;18.92;2.85;;;;;;;;;;5088070;28;20055;-75
2021/12/05 16:12:14;;;;;;;21.08;2.70;;;;;;;;;;5086501;28;20032;-75
2021/12/05 16:14:43;;;;;;;15.05;1.85;;;;;;;;;;5089514;28;20028;-76
2021/12/05 16:17:28;;;;;;;10.55;1.95;;;;;;;;;;5090050;28;20024;-76
2021/12/05 16:20:01;;;;;;;13.95;2.10;;;;;;;;;;5089773;28;20086;-77
2021/12/05 16:22:27;;;;;;;6.30;1.55;;;;;;;;;;5090007;28;20070;-76
2021/12/05 16:24:52;;;;;;;12.82;2.30;;;;;;;;;;5088375;28;20062;-76
2021/12/05 16:27:18;;;;;;;14.73;2.20;;;;;;;;;;5089489;28;20024;-75
2021/12/05 16:29:44;;;;;;;17.75;3.65;;;;;;;;;;5089930;28;20464;-74
2021/12/05 16:32:10;;;;;;;15.05;1.73;;;;;;;;;;5089730;28;20019;-76
2021/12/05 16:34:39;;;;;;;10.90;1.70;;;;;;;;;;5088603;28;20035;-74
2021/12/05 16:37:06;;;;;;;16.45;2.47;;;;;;;;;;5089455;28;20028;-75
2021/12/05 16:39:33;;;;;;;9.90;2.10;;;;;;;;;;5088166;28;20483;-74
2021/12/05 16:42:01;;;;;;;18.45;2.47;;;;;;;;;;5089418;28;20058;-74
2021/12/05 16:44:29;;;;;;;13.80;1.73;;;;;;;;;;5071331;28;20499;-75
2021/12/05 16:46:58;;;;;;;20.92;3.15;;;;;;;;;;5089285;28;20110;-75
2021/12/05 16:49:28;;;;;;;14.07;2.13;;;;;;;;;;5071467;28;20038;-75
2021/12/05 16:51:56;;;;;;;10.02;1.73;;;;;;;;;;5089357;28;20040;-75
2021/12/05 16:54:31;;;;;;;14.18;2.40;;;;;;;;;;5089340;28;20418;-75
2021/12/05 16:57:01;;;;;;;13.73;2.85;;;;;;;;;;5089693;28;20039;-75
2021/12/05 16:59:30;;;;;;;7.65;1.90;;;;;;;;;;5088067;28;20032;-75
2021/12/05 17:02:14;;;;;;;12.05;2.10;;;;;;;;;;5089587;28;20038;-74
2021/12/05 17:04:44;;;;;;;14.43;2.45;;;;;;;;;;5089096;28;20417;-74
2021/12/05 17:07:13;;;;;;;8.65;2.42;;;;;;;;;;5087924;28;20391;-75
2021/12/05 17:09:39;;;;;;;;;;;;;;;;;;5087481;28;20032;-75
2021/12/05 17:12:05;;;;;;;10.90;2.28;;;;;;;;;;5089076;28;19915;-74
2021/12/05 17:14:31;;;;;;;16.67;2.45;;;;;;;;;;5089323;28;20111;-74
2021/12/05 17:16:57;;;;;;;11.05;1.67;;;;;;;;;;5088448;28;20102;-75
2021/12/05 17:19:27;;;;;;;7.65;1.52;;;;;;;;;;5088970;28;20081;-74
2021/12/05 17:21:54;;;;;;;15.68;3.63;;;;;;;;;;5087847;28;20032;-75
2021/12/05 17:24:32;;;;;;;9.77;2.08;;;;;;;;;;5088818;28;20403;-75
2021/12/05 17:27:00;;;;;;;10.77;3.63;;;;;;;;;;5087393;28;20479;-75
2021/12/05 17:29:29;;;;;;;17.20;6.50;;;;;;;;;;5087832;28;20372;-75
2021/12/05 17:31:57;;;;;;;17.35;7.40;;;;;;;;;;5088968;28;20110;-75
2021/12/05 17:34:25;;;;;;;20.58;8.57;;;;;;;;;;5088724;28;20043;-75
2021/12/05 17:36:56;;;;;;;18.65;9.63;;;;;;;;;;5088503;28;20024;-74
2021/12/05 17:39:24;;;;;;;18.60;8.73;;;;;;;;;;5087324;28;20127;-74
2021/12/05 17:41:52;;;;;;;21.88;8.63;;;;;;;;;;5088945;28;20110;-75
2021/12/05 17:44:19;;;;;;;18.58;8.60;;;;;;;;;;5088641;28;20105;-74
2021/12/05 17:46:50;;;;;;;17.40;8.23;;;;;;;;;;5087097;28;20028;-75
2021/12/05 17:49:17;;;;;;;22.33;9.77;;;;;;;;;;5088513;28;20364;-74
2021/12/05 17:51:44;;;;;;;21.38;10.02;;;;;;;;;;5088564;28;20043;-74
2021/12/05 17:54:11;;;;;;;23.48;9.70;;;;;;;;;;5088886;28;20024;-76
2021/12/05 17:56:50;;;;;;;33.88;16.35;;;;;;;;;;5088100;28;20043;-75
2021/12/05 17:59:30;;;;;;;27.43;12.80;;;;;;;;;;5087550;28;20046;-74
2021/12/05 18:04:41;;;;;;;24.35;11.30;;;;;;;;;;5087946;28;20296;-77
2021/12/05 18:07:07;;;;;;;28.70;12.85;;;;;;;;;;5088243;28;20070;-76
2021/12/05 18:09:33;;;;;;;24.58;14.27;;;;;;;;;;5086863;28;20089;-77
2021/12/05 18:11:58;;;;;;;28.83;13.18;;;;;;;;;;5086776;28;20429;-76
2021/12/05 18:14:24;;;;;;;24.70;14.00;;;;;;;;;;5087909;28;20115;-75
2021/12/05 18:16:50;;;;;;;27.98;13.70;;;;;;;;;;5069870;28;20062;-77
2021/12/05 18:19:17;;;;;;;27.70;16.40;;;;;;;;;;5087047;28;20043;-77
2021/12/05 18:21:43;;;;;;;36.17;14.90;;;;;;;;;;5090043;28;20036;-77
2021/12/05 18:24:11;;;;;;;25.35;14.45;;;;;;;;;;5091536;28;20043;-76
2021/12/05 18:26:37;;;;;;;33.63;14.45;;;;;;;;;;5091563;28;20027;-76
2021/12/05 18:29:04;;;;;;;30.50;17.13;;;;;;;;;;5090409;28;20036;-77
2021/12/05 18:31:33;;;;;;;37.05;14.70;;;;;;;;;;5091344;28;20157;-77
2021/12/05 18:34:00;;;;;;;;;;;;;;;;;;5092215;28;20073;-77
2021/12/05 18:36:26;;;;;;;30.70;17.60;;;;;;;;;;5091753;28;19919;-77
2021/12/05 18:38:53;;;;;;;37.78;20.98;;;;;;;;;;5089759;28;20106;-76
2021/12/05 18:41:18;;;;;;;31.88;17.55;;;;;;;;;;5090503;28;20035;-76
2021/12/05 18:43:45;;;;;;;34.78;17.58;;;;;;;;;;5091205;28;20032;-75
2021/12/05 18:46:11;;;;;;;39.95;20.48;;;;;;;;;;5090552;28;20043;-76
2021/12/05 18:48:37;;;;;;;30.42;17.08;;;;;;;;;;5091457;28;20039;-76
2021/12/05 18:51:04;;;;;;;25.58;15.00;;;;;;;;;;5091486;28;20546;-76
2021/12/05 18:53:30;;;;;;;33.17;16.45;;;;;;;;;;5091108;28;20055;-76
2021/12/05 18:55:56;;;;;;;27.70;15.57;;;;;;;;;;5091032;28;20027;-76
2021/12/05 18:58:24;;;;;;;33.35;18.27;;;;;;;;;;5090436;28;20032;-76
2021/12/05 19:06:26;;;;;;;40.10;20.70;;;;;;;;;;5088357;28;20040;-77
2021/12/05 19:14:01;;;;;;;26.88;11.23;;;;;;;;;;5090822;28;20059;-75
2021/12/05 19:16:27;;;;;;;23.27;11.02;;;;;;;;;;5090853;28;20434;-74
2021/12/05 19:18:53;;;;;;;21.85;8.95;;;;;;;;;;5089265;28;20480;-74
2021/12/05 19:21:18;;;;;;;27.30;9.20;;;;;;;;;;5090755;28;20044;-75
2021/12/05 19:23:44;;;;;;;23.30;10.25;;;;;;;;;;5072685;28;20089;-76
2021/12/05 19:26:11;;;;;;;25.70;11.02;;;;;;;;;;5089340;28;20446;-75
2021/12/05 19:28:37;;;;;;;20.30;10.60;;;;;;;;;;5090762;28;20083;-74
2021/12/05 19:31:03;;;;;;;31.40;10.55;;;;;;;;;;5090371;28;20077;-75
2021/12/05 19:33:30;;;;;;;22.27;9.82;;;;;;;;;;5088336;28;20575;-76
2021/12/05 19:35:57;;;;;;;27.23;10.30;;;;;;;;;;5089089;28;20032;-76
2021/12/05 19:38:24;;;;;;;19.45;10.27;;;;;;;;;;5090746;28;20494;-75
2021/12/05 19:40:57;;;;;;;17.20;9.65;;;;;;;;;;5089109;28;20058;-75
2021/12/05 19:43:25;;;;;;;35.00;17.63;;;;;;;;;;5090376;28;20032;-74
2021/12/05 19:45:55;;;;;;;91.10;38.20;;;;;;;;;;5072000;28;20031;-74
2021/12/05 19:48:20;;;;;;;46.67;22.65;;;;;;;;;;5089609;28;20429;-76
2021/12/05 19:50:46;;;;;;;46.92;25.38;;;;;;;;;;5089945;28;20036;-74
2021/12/05 19:53:12;;;;;;;19.38;10.85;;;;;;;;;;5089087;28;20126;-75
2021/12/05 19:55:38;;;;;;;20.17;8.02;;;;;;;;;;5089378;28;20093;-74
2021/12/05 19:58:04;;;;;;;10.68;6.22;;;;;;;;;;5088875;28;20031;-75
2021/12/05 20:00:31;;;;;;;14.80;7.13;;;;;;;;;;5090097;28;20050;-75
2021/12/05 20:02:57;;;;;;;18.40;7.20;;;;;;;;;;5090133;28;20032;-76
2021/12/05 20:05:28;;;;;;;11.60;6.55;;;;;;;;;;5090033;28;20036;-74
2021/12/05 20:07:54;;;;;;;10.30;5.80;;;;;;;;;;5090540;28;20035;-75
2021/12/05 20:10:21;;;;;;;12.05;5.57;;;;;;;;;;5088872;28;20931;-75
2021/12/05 20:12:47;;;;;;;12.70;5.18;;;;;;;;;;5088611;28;20028;-77
2021/12/05 20:15:13;;;;;;;11.65;5.63;;;;;;;;;;5090035;28;20391;-76